createdAt,value
2018-03-23T00:00:53.417Z,63.10
2018-03-23T00:05:56.903Z,59.83
2018-03-23T00:11:00.844Z,57.47
2018-03-23T00:16:04.717Z,63.40
2018-03-23T00:21:07.824Z,61.77
2018-03-23T00:26:12.271Z,56.20
2018-03-23T00:31:15.775Z,57.70
2018-03-23T00:36:19.644Z,59.33
2018-03-23T00:41:23.585Z,54.33
2018-03-23T00:46:26.727Z,62.37
2018-03-23T00:51:29.816Z,65.10
2018-03-23T00:56:34.254Z,57.13
2018-03-23T01:01:38.708Z,62.03
2018-03-23T01:06:44.121Z,62.33
2018-03-23T01:11:47.224Z,63.92
2018-03-23T01:16:51.702Z,66.30
2018-03-23T01:21:55.582Z,62.37
2018-03-23T01:26:58.685Z,64.27
2018-03-23T01:32:02.175Z,55.23
2018-03-23T01:37:06.789Z,63.28
2018-03-23T01:42:10.276Z,63.57
2018-03-23T01:47:14.509Z,63.53
2018-03-23T01:52:18.384Z,68.73
2018-03-23T01:57:21.882Z,59.13
2018-03-23T02:02:25.580Z,69.00
2018-03-23T02:07:28.696Z,64.53
2018-03-23T02:12:31.797Z,66.83
2018-03-23T02:17:34.993Z,67.00
2018-03-23T02:22:38.106Z,72.93
2018-03-23T02:27:42.331Z,74.20
2018-03-23T02:32:46.807Z,63.33
2018-03-23T02:37:50.689Z,62.73
2018-03-23T02:42:55.283Z,73.70
2018-03-23T02:47:58.393Z,60.72
2018-03-23T02:53:02.239Z,74.23
2018-03-23T02:58:05.536Z,73.28
2018-03-23T03:03:09.993Z,74.63
2018-03-23T03:08:14.442Z,75.90
2018-03-23T03:13:17.936Z,77.87
2018-03-23T03:18:21.440Z,63.70
2018-03-23T03:23:25.993Z,68.53
2018-03-23T03:28:29.094Z,63.57
2018-03-23T03:33:32.213Z,64.67
2018-03-23T03:38:35.311Z,66.23
2018-03-23T03:43:39.181Z,64.40
2018-03-23T03:48:43.624Z,60.70
2018-03-23T03:53:47.131Z,67.27
2018-03-23T03:58:51.645Z,71.00
2018-03-23T04:03:56.091Z,68.97
2018-03-23T04:08:59.957Z,60.77
2018-03-23T04:14:04.204Z,66.87
2018-03-23T04:19:08.663Z,58.20
2018-03-23T04:24:11.760Z,59.97
2018-03-23T04:29:16.692Z,59.97
2018-03-23T04:34:20.200Z,54.33
2018-03-23T04:39:24.661Z,49.13
2018-03-23T04:44:28.536Z,51.97
2018-03-23T04:49:32.033Z,55.80
2018-03-23T04:54:36.480Z,55.23
2018-03-23T04:59:40.341Z,55.63
2018-03-23T05:04:43.450Z,54.90
2018-03-23T05:09:46.957Z,59.17
2018-03-23T05:14:51.412Z,62.57
2018-03-23T05:19:54.891Z,57.60
2018-03-23T05:24:59.544Z,62.07
2018-03-23T05:30:03.780Z,58.78
2018-03-23T05:35:07.649Z,57.37
2018-03-23T05:40:11.510Z,60.90
2018-03-23T05:45:15.388Z,59.13
2018-03-23T05:50:19.816Z,61.97
2018-03-23T05:55:22.918Z,53.40
2018-03-23T06:00:26.442Z,53.85
2018-03-23T06:05:30.920Z,58.40
2018-03-23T06:10:34.823Z,56.33
2018-03-23T06:15:37.937Z,52.60
2018-03-23T06:20:42.377Z,53.53
2018-03-23T06:25:46.270Z,46.47
2018-03-23T06:30:50.931Z,51.27
2018-03-23T06:35:56.212Z,49.03
2018-03-23T06:40:59.555Z,49.73
2018-03-23T06:46:04.284Z,54.67
2018-03-23T06:51:08.737Z,48.23
2018-03-23T06:56:12.229Z,49.87
2018-03-23T07:01:17.812Z,49.67
2018-03-23T07:06:22.092Z,48.33
2018-03-23T07:11:25.192Z,51.55
2018-03-23T07:16:29.651Z,46.10
2018-03-23T07:21:33.309Z,43.63
2018-03-23T07:26:36.827Z,45.12
2018-03-23T07:31:40.710Z,43.87
2018-03-23T07:36:43.825Z,42.83
2018-03-23T07:41:46.933Z,40.67
2018-03-23T07:46:51.388Z,46.10
2018-03-23T07:51:54.482Z,40.30
2018-03-23T07:56:58.949Z,39.60
2018-03-23T08:02:03.590Z,35.97
2018-03-23T08:07:07.464Z,36.30
2018-03-23T08:12:11.727Z,38.83
2018-03-23T08:17:16.710Z,36.23
2018-03-23T08:22:21.188Z,35.03
2018-03-23T08:27:25.797Z,29.83
2018-03-23T08:32:30.262Z,28.83
2018-03-23T08:37:34.564Z,26.53
2018-03-23T08:42:39.388Z,25.13
2018-03-23T08:47:42.510Z,32.83
2018-03-23T08:52:46.963Z,22.30
2018-03-23T08:57:52.408Z,23.47
2018-03-23T09:02:55.504Z,21.00
2018-03-23T09:07:58.626Z,19.42
2018-03-23T09:13:02.142Z,23.17
2018-03-23T09:18:06.805Z,22.00
2018-03-23T09:23:09.934Z,21.03
2018-03-23T09:28:17.174Z,20.07
2018-03-23T09:33:20.692Z,20.07
2018-03-23T09:38:24.199Z,20.90
2018-03-23T09:43:28.825Z,21.20
2018-03-23T09:48:33.269Z,19.83
2018-03-23T09:53:37.891Z,19.63
2018-03-23T09:58:42.356Z,18.73
2018-03-23T10:03:45.921Z,20.00
2018-03-23T10:08:50.357Z,21.13
2018-03-23T10:13:54.808Z,20.70
2018-03-23T10:18:58.690Z,21.03
2018-03-23T10:24:02.551Z,19.73
2018-03-23T10:29:07.079Z,21.52
2018-03-23T10:34:11.497Z,17.87
2018-03-23T10:39:14.609Z,19.07
2018-03-23T10:44:17.742Z,18.60
2018-03-23T10:49:21.622Z,20.23
2018-03-23T10:54:26.080Z,16.17
2018-03-23T10:59:30.326Z,17.37
2018-03-23T11:04:33.435Z,15.70
2018-03-23T11:09:37.882Z,15.17
2018-03-23T11:14:42.445Z,12.87
2018-03-23T11:19:45.952Z,14.18
2018-03-23T11:24:49.063Z,14.13
2018-03-23T11:29:52.147Z,15.53
2018-03-23T11:34:56.735Z,15.03
2018-03-23T11:40:02.327Z,16.53
2018-03-23T11:45:06.788Z,20.73
2018-03-23T11:50:11.018Z,15.10
2018-03-23T11:55:15.503Z,16.40
2018-03-23T12:00:19.958Z,13.67
2018-03-23T12:05:23.036Z,13.17
2018-03-23T12:10:26.145Z,12.57
2018-03-23T12:15:30.583Z,12.33
2018-03-23T12:20:34.086Z,13.73
2018-03-23T12:25:37.935Z,13.90
2018-03-23T12:30:42.402Z,17.50
2018-03-23T12:35:45.483Z,15.00
2018-03-23T12:40:48.987Z,14.57
2018-03-23T12:45:52.346Z,15.87
2018-03-23T12:50:55.847Z,14.33
2018-03-23T12:56:01.204Z,16.27
2018-03-23T13:01:04.306Z,14.50
2018-03-23T13:06:07.444Z,16.77
2018-03-23T13:11:11.339Z,13.37
2018-03-23T13:16:15.196Z,11.03
2018-03-23T13:21:19.824Z,15.07
2018-03-23T13:26:24.244Z,16.90
2018-03-23T13:31:27.489Z,15.48
2018-03-23T13:36:31.945Z,13.60
2018-03-23T13:41:35.427Z,17.17
2018-03-23T13:46:39.863Z,16.03
2018-03-23T13:51:42.954Z,13.23
2018-03-23T13:56:47.189Z,13.13
2018-03-23T14:01:50.277Z,13.67
2018-03-23T14:06:54.533Z,10.03
2018-03-23T14:11:59.083Z,9.53
2018-03-23T14:17:02.600Z,12.17
2018-03-23T14:22:06.451Z,11.83
2018-03-23T14:27:09.929Z,12.27
2018-03-23T14:32:13.797Z,9.87
2018-03-23T14:37:18.363Z,10.33
2018-03-23T14:42:21.859Z,13.87
2018-03-23T14:47:24.956Z,11.77
2018-03-23T14:52:28.454Z,9.97
2018-03-23T14:57:31.530Z,12.97
2018-03-23T15:02:34.649Z,10.10
2018-03-23T15:07:37.715Z,8.47
2018-03-23T15:12:42.146Z,7.60
2018-03-23T15:17:45.440Z,9.53
2018-03-23T15:22:49.874Z,7.30
2018-03-23T15:27:53.741Z,7.40
2018-03-23T15:32:56.850Z,8.00
2018-03-23T15:38:00.683Z,7.20
2018-03-23T15:43:03.848Z,5.40
2018-03-23T15:48:07.549Z,6.17
2018-03-23T15:53:12.009Z,6.07
2018-03-23T15:58:15.939Z,6.10
2018-03-23T16:03:19.793Z,5.13
2018-03-23T16:08:22.869Z,5.03
2018-03-23T16:13:26.720Z,6.57
2018-03-23T16:18:29.860Z,8.30
2018-03-23T16:23:32.909Z,8.30
2018-03-23T16:28:36.751Z,8.60
2018-03-23T16:33:39.845Z,13.02
2018-03-23T16:38:43.688Z,8.47
2018-03-23T16:43:46.808Z,7.93
2018-03-23T16:48:49.883Z,8.13
2018-03-23T16:53:54.099Z,9.10
2018-03-23T16:58:57.595Z,8.33
2018-03-23T17:04:01.479Z,10.80
2018-03-23T17:09:07.193Z,8.00
2018-03-23T17:14:11.646Z,10.90
2018-03-23T17:19:14.733Z,9.95
2018-03-23T17:24:18.623Z,9.85
2018-03-23T17:29:23.064Z,11.30
2018-03-23T17:34:27.671Z,10.37
2018-03-23T17:39:31.317Z,10.07
2018-03-23T17:44:35.997Z,11.33
2018-03-23T17:49:40.406Z,14.30
2018-03-23T17:54:44.278Z,14.23
2018-03-23T17:59:47.760Z,13.03
2018-03-23T18:04:51.270Z,11.43
2018-03-23T18:09:54.358Z,13.27
2018-03-23T18:14:58.204Z,13.53
2018-03-23T18:20:02.033Z,11.83
2018-03-23T18:25:06.359Z,13.10
2018-03-23T18:30:11.807Z,12.00
2018-03-23T18:35:16.406Z,14.73
2018-03-23T18:40:20.257Z,13.13
2018-03-23T18:45:23.338Z,14.47
2018-03-23T18:50:28.596Z,15.70
2018-03-23T18:55:33.440Z,15.13
2018-03-23T19:00:36.605Z,13.30
2018-03-23T19:05:40.429Z,15.50
2018-03-23T19:10:43.522Z,13.30
2018-03-23T19:15:47.428Z,14.43
2018-03-23T19:20:51.804Z,15.67
2018-03-23T19:25:54.909Z,14.30
2018-03-23T19:30:58.809Z,15.80
2018-03-23T19:36:02.796Z,14.57
2018-03-23T19:41:06.808Z,15.83
2018-03-23T19:46:10.656Z,14.57
2018-03-23T19:51:15.712Z,14.80
2018-03-23T19:56:19.566Z,20.20
2018-03-23T20:01:23.792Z,16.30
2018-03-23T20:06:26.886Z,14.93
2018-03-23T20:11:31.317Z,16.57
2018-03-23T20:16:35.905Z,15.00
2018-03-23T20:21:39.765Z,14.97
2018-03-23T20:26:42.851Z,14.75
2018-03-23T20:31:52.273Z,18.30
2018-03-23T20:36:55.361Z,14.97
2018-03-23T20:41:58.445Z,15.37
2018-03-23T20:47:02.880Z,15.07
2018-03-23T20:52:07.316Z,16.17
2018-03-23T20:57:10.797Z,18.70
2018-03-23T21:02:15.036Z,17.40
2018-03-23T21:07:19.485Z,15.63
2018-03-23T21:12:24.080Z,15.07
2018-03-23T21:17:28.746Z,15.67
2018-03-23T21:22:31.825Z,16.57
2018-03-23T21:27:34.929Z,15.83
2018-03-23T21:32:38.021Z,15.40
2018-03-23T21:37:41.894Z,14.00
2018-03-23T21:42:46.131Z,12.60
2018-03-23T21:47:50.553Z,12.23
2018-03-23T21:52:55.168Z,13.50
2018-03-23T21:57:59.021Z,11.80
2018-03-23T22:03:03.321Z,11.90
2018-03-23T22:08:07.785Z,13.07
2018-03-23T22:13:10.874Z,12.93
2018-03-23T22:18:14.733Z,13.43
2018-03-23T22:23:19.176Z,12.13
2018-03-23T22:28:22.258Z,10.63
2018-03-23T22:33:26.700Z,9.43
2018-03-23T22:38:29.846Z,9.80
2018-03-23T22:43:34.012Z,9.13
2018-03-23T22:48:37.862Z,8.90
2018-03-23T22:53:40.986Z,10.50
2018-03-23T22:58:44.786Z,10.60
2018-03-23T23:03:48.660Z,9.93
2018-03-23T23:08:52.543Z,10.37
2018-03-23T23:13:56.752Z,11.70
2018-03-23T23:19:01.192Z,10.50
2018-03-23T23:24:06.254Z,13.90
2018-03-23T23:29:11.159Z,10.57
2018-03-23T23:34:15.594Z,10.80
2018-03-23T23:39:20.162Z,12.02
2018-03-23T23:44:24.733Z,11.73
2018-03-23T23:49:27.825Z,11.53
2018-03-23T23:54:30.899Z,11.65
2018-03-23T23:59:35.346Z,11.97
